CST,Max TemperatureF,Mean TemperatureF,Min TemperatureF,Max Dew PointF,MeanDew PointF,Min DewpointF,Max Humidity, Mean Humidity, Min Humidity, Max Sea Level PressureIn, Mean Sea Level PressureIn, Min Sea Level PressureIn, Max VisibilityMiles, Mean VisibilityMiles, Min VisibilityMiles, Max Wind SpeedMPH, Mean Wind SpeedMPH, Max Gust SpeedMPH,PrecipitationIn, CloudCover, Events, WindDirDegrees
2014-2-1,25,21,16,19,15,10,88,81,74,30.26,29.98,29.86,10,5,0,17,10,23,0.44,8,Fog-Snow,9
2014-2-2,18,3,-13,8,-2,-18,83,68,53,30.42,30.38,30.27,10,10,9,18,6,21,0.00,0,,352
2014-2-3,22,3,-16,9,-4,-21,86,67,47,30.47,30.40,30.33,10,9,2,9,4,11,0.00,1,,126
2014-2-4,18,17,16,14,12,8,84,76,67,30.37,30.20,30.08,10,2,0,23,13,31,0.37,8,Fog-Snow,43
2014-2-5,16,7,-2,12,3,-9,80,69,58,30.67,30.36,30.11,10,5,1,24,13,30,T,5,Snow,331
2014-2-6,10,-2,-14,-5,-10,-18,82,69,55,30.68,30.61,30.53,10,10,10,15,7,18,0.00,0,,270
2014-2-7,13,-2,-17,4,-6,-21,79,64,48,30.52,30.43,30.24,10,10,10,13,6,15,0.00,6,,204
2014-2-8,25,19,13,19,13,5,88,78,67,30.30,30.19,30.13,10,8,2,13,6,16,T,8,Snow,171
2014-2-9,23,14,4,17,7,-6,84,70,56,30.48,30.32,30.14,10,8,4,16,8,19,T,5,,345
2014-2-10,12,1,-11,-5,-8,-12,78,64,50,30.59,30.54,30.49,10,10,10,13,5,15,0.00,0,,355
2014-2-11,14,-1,-16,0,-9,-19,86,71,55,30.59,30.50,30.35,10,10,10,12,4,12,0.00,1,,125
2014-2-12,33,16,-1,15,4,-8,84,62,39,30.32,30.16,30.02,10,10,6,12,5,12,0.00,3,,175
2014-2-13,43,26,9,28,20,9,85,69,53,29.99,29.83,29.71,10,8,4,20,8,28,0.00,2,,238
2014-2-14,28,18,8,19,13,2,91,74,57,30.17,29.83,29.62,10,6,0,21,10,24,0.20,6,Fog-Snow,13
2014-2-15,29,13,-3,22,8,-4,95,73,50,30.16,30.05,29.95,10,10,9,15,7,19,0.00,4,,212
2014-2-16,31,28,24,23,20,18,81,77,72,30.27,30.17,30.05,10,8,5,20,11,26,0.00,7,,53
2014-2-17,46,36,26,32,27,21,92,71,49,30.05,29.89,29.82,10,4,0,22,12,33,0.14,6,Fog-Rain-Snow,191
2014-2-18,56,45,34,32,28,23,64,51,38,29.98,29.82,29.68,10,10,10,25,13,36,0.00,0,,228
2014-2-19,47,38,29,40,33,27,89,71,53,30.04,29.89,29.68,10,9,3,17,8,23,0.27,3,Rain-Thunderstorm,167
2014-2-20,45,39,33,45,37,23,100,82,64,29.69,29.45,29.18,10,5,0,31,15,44,1.27,7,Fog-Rain-Thunderstorm,28
2014-2-21,50,38,26,25,20,15,78,55,32,29.94,29.84,29.67,10,10,10,26,13,35,0.00,1,,260
2014-2-22,41,32,23,29,24,14,85,69,52,30.19,30.03,29.93,10,10,10,17,9,21,0.00,2,,23
2014-2-23,34,27,20,14,12,10,71,56,41,30.40,30.33,30.20,10,10,10,17,9,20,0.00,4,,358
2014-2-24,27,23,18,16,13,10,73,62,50,30.43,30.36,30.29,10,10,10,12,5,14,0.00,6,,38
2014-2-25,23,17,11,18,9,-3,88,69,49,30.46,30.36,30.28,10,10,6,20,11,27,T,6,Snow,349
2014-2-26,25,13,0,13,-1,-8,75,54,32,30.48,30.21,29.94,10,10,10,21,11,29,0.00,0,,268
2014-2-27,25,17,8,13,-4,-12,70,48,25,30.24,30.14,29.97,10,10,10,23,10,28,0.00,1,,23
2014-2-28,49,30,10,23,11,0,67,47,26,30.11,29.99,29.89,10,10,10,21,12,25,T,1,,151